Terminal Aerodrome Forecast
Issued by NWS

Home | Current Version | Previous Version | Text Only | Print | Product List | Glossary On
Versions: 1 2 3 4 5 6 7 8 9 10 11 12
000
FTUS42 TJSJ 252352
TAFJPS
TAF
TJPS 252352Z 2600/2624 VRB05KT P6SM FEW020 SCT060
     FM261330 13012KT P6SM FEW025
     FM261650 14012G20KT P6SM VCTS SCT030CB SCT060
     FM262330 06007KT P6SM FEW030 FEW060
      AMD NOT SKED TIL 260300=

USA.gov is the U.S. government's official web portal to all federal, state and local government web resources and services.